createdAt,value
2022-11-29T00:01:42.205Z,10.10
2022-11-29T00:04:08.643Z,9.93
2022-11-29T00:06:35.463Z,9.88
2022-11-29T00:09:04.294Z,10.70
2022-11-29T00:11:51.412Z,9.60
2022-11-29T00:14:18.519Z,9.82
2022-11-29T00:16:44.933Z,9.77
2022-11-29T00:19:11.994Z,9.30
2022-11-29T00:21:38.764Z,9.50
2022-11-29T00:24:05.234Z,9.57
2022-11-29T00:26:31.615Z,10.00
2022-11-29T00:28:57.995Z,9.30
2022-11-29T00:31:26.087Z,10.15
2022-11-29T00:33:52.889Z,10.05
2022-11-29T00:36:19.784Z,9.82
2022-11-29T00:38:46.118Z,10.00
2022-11-29T00:41:12.597Z,9.30
2022-11-29T00:43:39.606Z,8.93
2022-11-29T00:46:06.719Z,9.60
2022-11-29T00:48:33.576Z,10.07
2022-11-29T00:50:59.912Z,9.38
2022-11-29T00:53:26.271Z,10.43
2022-11-29T00:55:52.949Z,10.27
2022-11-29T00:58:19.883Z,9.82
2022-11-29T01:00:46.418Z,10.43
2022-11-29T01:03:13.291Z,10.02
2022-11-29T01:05:40.298Z,9.43
2022-11-29T01:08:06.752Z,9.38
2022-11-29T01:10:33.489Z,9.68
2022-11-29T01:12:59.901Z,10.32
2022-11-29T01:15:26.317Z,10.48
2022-11-29T01:17:53.429Z,10.25
2022-11-29T01:20:19.954Z,10.65
2022-11-29T01:22:46.421Z,10.13
2022-11-29T01:25:13.281Z,10.02
2022-11-29T01:27:39.692Z,10.73
2022-11-29T01:30:06.986Z,10.25
2022-11-29T01:32:33.506Z,10.70
2022-11-29T01:34:59.853Z,11.32
2022-11-29T01:37:28.297Z,10.85
2022-11-29T01:39:54.667Z,10.35
2022-11-29T01:42:21.011Z,10.75
2022-11-29T01:44:50.408Z,11.55
2022-11-29T01:47:17.803Z,11.10
2022-11-29T01:49:45.278Z,10.50
2022-11-29T01:52:13.933Z,10.43
2022-11-29T01:54:48.180Z,10.52
2022-11-29T01:57:15.299Z,11.02
2022-11-29T01:59:48.327Z,11.57
2022-11-29T02:02:16.849Z,11.15
2022-11-29T02:04:45.467Z,11.07
2022-11-29T02:07:11.933Z,11.15
2022-11-29T02:09:38.603Z,11.25
2022-11-29T02:12:05.002Z,11.52
2022-11-29T02:14:37.434Z,11.23
2022-11-29T02:17:03.700Z,10.80
2022-11-29T02:19:32.990Z,10.85
2022-11-29T02:22:04.101Z,11.43
2022-11-29T02:24:36.482Z,11.20
2022-11-29T02:27:02.831Z,11.32
2022-11-29T02:29:29.233Z,11.77
2022-11-29T02:32:05.603Z,11.68
2022-11-29T02:34:45.192Z,11.75
2022-11-29T02:37:30.190Z,10.88
2022-11-29T02:40:15.584Z,11.25
2022-11-29T02:42:56.741Z,8.27
2022-11-29T02:45:23.485Z,11.93
2022-11-29T02:48:16.769Z,12.40
2022-11-29T02:50:56.992Z,11.63
2022-11-29T02:53:29.382Z,12.35
2022-11-29T02:56:14.500Z,11.73
2022-11-29T02:58:47.415Z,11.87
2022-11-29T03:01:20.992Z,11.70
2022-11-29T03:04:05.887Z,11.68
2022-11-29T03:06:32.251Z,12.05
2022-11-29T03:09:04.193Z,11.68
2022-11-29T03:11:52.061Z,11.07
2022-11-29T03:14:26.435Z,11.57
2022-11-29T03:16:58.698Z,11.57
2022-11-29T03:19:51.398Z,11.40
2022-11-29T03:22:20.834Z,11.68
2022-11-29T03:24:47.315Z,11.75
2022-11-29T03:27:16.507Z,11.88
2022-11-29T03:29:50.556Z,10.82
2022-11-29T03:32:27.023Z,11.98
2022-11-29T03:35:05.582Z,11.90
2022-11-29T03:37:52.184Z,11.35
2022-11-29T03:40:26.355Z,11.88
2022-11-29T03:42:58.881Z,11.40
2022-11-29T03:45:28.856Z,12.15
2022-11-29T03:48:10.240Z,11.07
2022-11-29T03:50:38.954Z,12.07
2022-11-29T03:53:14.607Z,12.07
2022-11-29T03:55:54.683Z,12.00
2022-11-29T03:58:32.259Z,12.25
2022-11-29T04:01:04.615Z,11.02
2022-11-29T04:03:30.989Z,11.48
2022-11-29T04:06:20.629Z,10.35
2022-11-29T04:08:57.542Z,10.95
2022-11-29T04:11:27.076Z,11.25
2022-11-29T04:13:53.419Z,11.98
2022-11-29T04:16:22.945Z,11.60
2022-11-29T04:19:04.596Z,11.07
2022-11-29T04:21:30.916Z,12.00
2022-11-29T04:24:13.749Z,11.45
2022-11-29T04:26:49.381Z,12.43
2022-11-29T04:29:18.931Z,11.52
2022-11-29T04:31:51.219Z,11.65
2022-11-29T04:34:26.671Z,12.27
2022-11-29T04:36:59.160Z,12.55
2022-11-29T04:39:44.112Z,12.07
2022-11-29T04:42:10.589Z,11.85
2022-11-29T04:44:38.211Z,12.40
2022-11-29T04:47:19.790Z,12.82
2022-11-29T04:49:52.329Z,11.98
2022-11-29T04:52:18.676Z,12.23
2022-11-29T04:54:55.432Z,12.35
2022-11-29T04:57:23.130Z,12.00
2022-11-29T05:00:09.818Z,12.60
2022-11-29T05:02:36.146Z,12.45
2022-11-29T05:05:14.781Z,12.13
2022-11-29T05:07:41.152Z,12.02
2022-11-29T05:10:43.281Z,11.68
2022-11-29T05:13:13.401Z,11.93
2022-11-29T05:15:39.759Z,11.70
2022-11-29T05:18:23.874Z,12.38
2022-11-29T05:21:09.145Z,12.23
2022-11-29T05:23:48.423Z,12.80
2022-11-29T05:26:14.792Z,12.45
2022-11-29T05:28:41.073Z,12.52
2022-11-29T05:31:16.616Z,12.65
2022-11-29T05:36:12.113Z,12.15
2022-11-29T05:38:52.401Z,12.90
2022-11-29T05:41:37.503Z,12.00
2022-11-29T05:44:09.878Z,14.03
2022-11-29T05:46:56.992Z,12.38
2022-11-29T05:49:32.578Z,11.93
2022-11-29T05:54:30.980Z,11.73
2022-11-29T05:57:06.094Z,11.77
2022-11-29T05:59:34.355Z,12.57
2022-11-29T06:02:13.041Z,11.68
2022-11-29T06:04:39.383Z,13.10
2022-11-29T06:07:17.873Z,12.60
2022-11-29T06:10:02.018Z,11.93
2022-11-29T06:12:31.306Z,12.10
2022-11-29T06:15:06.494Z,12.93
2022-11-29T06:17:52.359Z,12.70
2022-11-29T06:23:04.294Z,12.25
2022-11-29T06:25:41.865Z,11.60
2022-11-29T06:28:27.115Z,12.50
2022-11-29T06:31:06.382Z,8.55
2022-11-29T06:33:35.869Z,11.95
2022-11-29T06:36:11.612Z,11.93
2022-11-29T06:38:38.045Z,11.10
2022-11-29T06:41:04.638Z,12.02
2022-11-29T06:43:31.247Z,11.77
2022-11-29T06:46:03.221Z,12.10
2022-11-29T06:48:34.474Z,12.75
2022-11-29T06:51:08.453Z,11.75
2022-11-29T06:53:48.643Z,11.73
2022-11-29T06:56:33.803Z,11.55
2022-11-29T06:59:19.033Z,11.63
2022-11-29T07:01:45.852Z,11.90
2022-11-29T07:04:31.183Z,12.32
2022-11-29T07:06:57.643Z,11.50
2022-11-29T07:09:27.974Z,11.70
2022-11-29T07:11:54.523Z,11.38
2022-11-29T07:14:20.978Z,11.45
2022-11-29T07:17:01.713Z,11.80
2022-11-29T07:19:41.149Z,11.55
2022-11-29T07:22:26.343Z,11.75
2022-11-29T07:24:58.672Z,11.48
2022-11-29T07:27:33.572Z,11.70
2022-11-29T07:29:59.919Z,11.63
2022-11-29T07:32:50.334Z,11.27
2022-11-29T07:35:22.042Z,11.02
2022-11-29T07:38:11.814Z,11.07
2022-11-29T07:40:42.660Z,10.93
2022-11-29T07:43:27.831Z,10.68
2022-11-29T07:45:54.971Z,8.60
2022-11-29T07:48:21.361Z,11.43
2022-11-29T07:50:48.277Z,12.55
2022-11-29T07:53:18.385Z,10.82
2022-11-29T07:55:45.161Z,11.05
2022-11-29T07:58:12.802Z,11.00
2022-11-29T08:00:39.718Z,11.15
2022-11-29T08:03:06.063Z,11.30
2022-11-29T08:05:32.505Z,10.85
2022-11-29T08:07:59.225Z,11.90
2022-11-29T08:10:25.654Z,11.95
2022-11-29T08:12:52.206Z,12.05
2022-11-29T08:15:19.459Z,12.15
2022-11-29T08:17:46.254Z,11.60
2022-11-29T08:20:13.479Z,11.65
2022-11-29T08:22:39.964Z,10.93
2022-11-29T08:25:07.345Z,10.80
2022-11-29T08:27:34.280Z,11.63
2022-11-29T08:30:00.630Z,11.48
2022-11-29T08:32:27.557Z,11.00
2022-11-29T08:34:53.910Z,10.93
2022-11-29T08:37:20.276Z,10.80
2022-11-29T08:39:46.625Z,10.52
2022-11-29T08:42:13.052Z,10.88
2022-11-29T08:44:40.635Z,10.82
2022-11-29T08:47:25.545Z,11.52
2022-11-29T08:50:04.115Z,10.55
2022-11-29T08:52:49.796Z,10.73
2022-11-29T08:55:16.615Z,10.13
2022-11-29T08:57:43.219Z,10.82
2022-11-29T09:00:09.895Z,10.38
2022-11-29T09:02:36.733Z,10.43
2022-11-29T09:05:03.680Z,9.63
2022-11-29T09:07:30.099Z,9.65
2022-11-29T09:09:56.608Z,9.52
2022-11-29T09:12:22.976Z,9.35
2022-11-29T09:14:49.465Z,9.30
2022-11-29T09:17:15.839Z,8.80
2022-11-29T09:19:42.338Z,9.48
2022-11-29T09:22:08.722Z,8.68
2022-11-29T09:24:35.013Z,8.75
2022-11-29T09:27:01.515Z,9.02
2022-11-29T09:29:27.893Z,8.25
2022-11-29T09:31:54.846Z,8.55
2022-11-29T09:34:21.317Z,8.77
2022-11-29T09:36:48.131Z,8.13
2022-11-29T09:39:14.591Z,8.73
2022-11-29T09:42:00.355Z,7.93
2022-11-29T09:44:29.427Z,7.22
2022-11-29T09:46:58.733Z,6.82
2022-11-29T09:49:31.549Z,7.15
2022-11-29T09:52:16.630Z,7.18
2022-11-29T09:55:01.969Z,6.85
2022-11-29T09:57:29.048Z,7.38
2022-11-29T09:59:57.472Z,7.65
2022-11-29T10:02:36.744Z,7.15
2022-11-29T10:05:08.531Z,7.55
2022-11-29T10:07:42.905Z,6.88
2022-11-29T10:10:15.074Z,7.22
2022-11-29T10:12:47.752Z,6.88
2022-11-29T10:15:19.821Z,6.30
2022-11-29T10:17:49.273Z,6.85
2022-11-29T10:20:15.560Z,6.82
2022-11-29T10:22:49.530Z,6.75
2022-11-29T10:25:19.165Z,6.47
2022-11-29T10:27:45.501Z,6.53
2022-11-29T10:30:13.279Z,6.53
2022-11-29T10:32:39.943Z,6.55
2022-11-29T10:35:12.529Z,6.32
2022-11-29T10:37:39.190Z,6.32
2022-11-29T10:40:10.133Z,5.95
2022-11-29T10:42:50.040Z,6.20
2022-11-29T10:45:25.990Z,6.90
2022-11-29T10:47:53.438Z,5.38
2022-11-29T10:50:22.350Z,6.18
2022-11-29T10:52:48.725Z,6.20
2022-11-29T10:55:16.017Z,5.72
2022-11-29T10:58:01.249Z,5.82
2022-11-29T11:00:28.276Z,5.88
2022-11-29T11:02:54.662Z,5.43
2022-11-29T11:05:24.954Z,5.43
2022-11-29T11:07:57.482Z,5.40
2022-11-29T11:10:27.134Z,5.30
2022-11-29T11:13:08.086Z,5.13
2022-11-29T11:15:34.460Z,5.30
2022-11-29T11:18:04.781Z,4.80
2022-11-29T11:20:39.734Z,5.35
2022-11-29T11:23:26.798Z,3.92
2022-11-29T11:25:59.395Z,5.03
2022-11-29T11:28:27.069Z,4.50
2022-11-29T11:31:04.976Z,4.70
2022-11-29T11:33:31.442Z,5.22
2022-11-29T11:36:06.921Z,4.30
2022-11-29T11:38:34.342Z,4.40
2022-11-29T11:41:05.275Z,4.20
2022-11-29T11:43:32.090Z,4.28
2022-11-29T11:45:58.507Z,4.18
2022-11-29T11:48:25.055Z,5.03
2022-11-29T11:50:53.083Z,4.13
2022-11-29T11:53:19.736Z,4.63
2022-11-29T11:55:54.183Z,4.25
2022-11-29T11:58:28.297Z,5.07
2022-11-29T12:01:03.312Z,4.90
2022-11-29T12:03:30.706Z,4.75
2022-11-29T12:06:11.475Z,4.80
2022-11-29T12:08:38.243Z,4.28
2022-11-29T12:11:07.745Z,4.50
2022-11-29T12:13:36.004Z,5.25
2022-11-29T12:16:05.835Z,4.30
2022-11-29T12:18:35.294Z,4.60
2022-11-29T12:21:01.636Z,4.80
2022-11-29T12:23:30.974Z,4.70
2022-11-29T12:26:05.527Z,4.43
2022-11-29T12:28:32.874Z,4.90
2022-11-29T12:31:11.578Z,4.75
2022-11-29T12:33:56.551Z,4.38
2022-11-29T12:36:38.100Z,4.32
2022-11-29T12:39:13.700Z,4.25
2022-11-29T12:44:20.440Z,4.72
2022-11-29T12:47:34.591Z,4.47
2022-11-29T12:50:05.238Z,4.53
2022-11-29T12:52:34.680Z,4.47
2022-11-29T12:55:18.026Z,4.38
2022-11-29T12:57:47.122Z,4.45
2022-11-29T13:00:14.162Z,4.00
2022-11-29T13:02:52.712Z,4.57
2022-11-29T13:05:19.105Z,3.92
2022-11-29T13:07:51.575Z,4.13
2022-11-29T13:10:32.608Z,4.35
2022-11-29T13:13:01.999Z,4.38
2022-11-29T13:15:31.371Z,4.65
2022-11-29T13:17:57.827Z,4.45
2022-11-29T13:20:24.152Z,4.82
2022-11-29T13:22:57.457Z,4.88
2022-11-29T13:25:26.693Z,4.50
2022-11-29T13:28:04.648Z,3.85
2022-11-29T13:30:31.469Z,4.40
2022-11-29T13:33:19.831Z,4.35
2022-11-29T13:35:50.064Z,4.45
2022-11-29T13:38:30.189Z,4.60
2022-11-29T13:41:02.405Z,4.30
2022-11-29T13:43:40.927Z,4.07
2022-11-29T13:46:10.681Z,4.85
2022-11-29T13:48:52.643Z,4.30
2022-11-29T13:51:29.872Z,4.32
2022-11-29T13:53:57.564Z,4.50
2022-11-29T13:56:27.108Z,4.68
2022-11-29T13:58:54.217Z,4.82
2022-11-29T14:01:21.572Z,4.50
2022-11-29T14:04:08.240Z,4.82
2022-11-29T14:06:38.009Z,6.03
2022-11-29T14:09:20.660Z,5.40
2022-11-29T14:11:50.218Z,5.18
2022-11-29T14:14:16.617Z,5.00
2022-11-29T14:16:42.989Z,4.43
2022-11-29T14:19:09.790Z,4.95
2022-11-29T14:21:54.912Z,4.68
2022-11-29T14:24:36.583Z,5.07
2022-11-29T14:27:05.884Z,5.47
2022-11-29T14:29:47.851Z,5.47
2022-11-29T14:32:26.254Z,5.68
2022-11-29T14:35:11.127Z,5.53
2022-11-29T14:37:56.054Z,5.55
2022-11-29T14:40:34.848Z,5.38
2022-11-29T14:43:02.648Z,5.70
2022-11-29T14:45:30.418Z,5.35
2022-11-29T14:47:57.391Z,5.22
2022-11-29T14:50:29.913Z,6.03
2022-11-29T14:52:56.275Z,5.90
2022-11-29T14:55:25.584Z,6.30
2022-11-29T14:57:58.006Z,6.38
2022-11-29T15:00:26.389Z,5.75
2022-11-29T15:02:58.859Z,6.20
2022-11-29T15:05:31.476Z,5.97
2022-11-29T15:08:00.814Z,6.18
2022-11-29T15:10:29.779Z,6.28
2022-11-29T15:12:58.253Z,6.25
2022-11-29T15:16:04.308Z,6.03
2022-11-29T15:18:59.738Z,5.90
2022-11-29T15:21:29.091Z,5.82
2022-11-29T15:24:01.552Z,6.07
2022-11-29T15:26:27.922Z,6.93
2022-11-29T15:29:11.704Z,6.03
2022-11-29T15:31:43.142Z,6.20
2022-11-29T15:34:28.005Z,6.25
2022-11-29T15:36:54.308Z,5.95
2022-11-29T15:39:40.141Z,6.35
2022-11-29T15:42:10.617Z,6.72
2022-11-29T15:44:37.013Z,7.25
2022-11-29T15:47:21.850Z,6.32
2022-11-29T15:49:48.576Z,5.85
2022-11-29T15:52:28.633Z,5.88
2022-11-29T15:54:57.906Z,5.70
2022-11-29T15:57:26.373Z,5.70
2022-11-29T15:59:58.161Z,5.72
2022-11-29T16:02:31.974Z,6.50
2022-11-29T16:05:01.261Z,6.18
2022-11-29T16:07:32.075Z,6.25
2022-11-29T16:10:01.596Z,6.57
2022-11-29T16:12:27.950Z,6.50
2022-11-29T16:14:58.677Z,6.82
2022-11-29T16:17:26.651Z,7.38
2022-11-29T16:20:04.376Z,6.85
2022-11-29T16:22:32.355Z,6.75
2022-11-29T16:25:02.902Z,7.40
2022-11-29T16:27:31.086Z,7.00
2022-11-29T16:29:57.982Z,8.00
2022-11-29T16:32:30.459Z,8.38
2022-11-29T16:34:57.963Z,8.20
2022-11-29T16:37:25.501Z,8.00
2022-11-29T16:39:59.858Z,7.85
2022-11-29T16:42:30.485Z,8.13
2022-11-29T16:44:59.943Z,7.80
2022-11-29T16:47:27.647Z,8.05
2022-11-29T16:50:03.241Z,7.75
2022-11-29T16:54:56.113Z,8.15
2022-11-29T16:57:22.615Z,7.63
2022-11-29T16:59:49.255Z,8.55
2022-11-29T17:02:15.848Z,8.50
2022-11-29T17:04:43.654Z,9.65
2022-11-29T17:07:23.006Z,9.25
2022-11-29T17:09:49.423Z,9.23
2022-11-29T17:12:15.851Z,9.45
2022-11-29T17:14:42.592Z,9.60
2022-11-29T17:17:12.539Z,9.75
2022-11-29T17:19:38.831Z,9.20
2022-11-29T17:22:05.298Z,9.05
2022-11-29T17:24:31.632Z,9.43
2022-11-29T17:26:58.012Z,9.80
2022-11-29T17:29:24.417Z,9.10
2022-11-29T17:31:51.038Z,10.10
2022-11-29T17:34:17.498Z,10.32
2022-11-29T17:36:45.147Z,10.38
2022-11-29T17:39:11.515Z,10.35
2022-11-29T17:41:37.850Z,11.05
2022-11-29T17:44:04.295Z,11.20
2022-11-29T17:46:31.866Z,10.80
2022-11-29T17:48:59.328Z,11.05
2022-11-29T17:54:12.446Z,11.05
2022-11-29T17:56:38.761Z,12.57
2022-11-29T17:59:05.449Z,12.60
2022-11-29T18:01:33.174Z,13.45
2022-11-29T18:04:00.543Z,15.25
2022-11-29T18:06:28.455Z,12.90
2022-11-29T18:08:56.160Z,13.30
2022-11-29T18:11:24.782Z,12.63
2022-11-29T18:13:52.683Z,14.45
2022-11-29T18:16:20.455Z,14.25
2022-11-29T18:18:47.044Z,12.63
2022-11-29T18:21:13.703Z,13.45
2022-11-29T18:23:41.502Z,13.35
2022-11-29T18:26:10.576Z,12.20
2022-11-29T18:28:37.797Z,14.32
2022-11-29T18:31:12.514Z,17.70
2022-11-29T18:33:39.451Z,9.90
2022-11-29T18:36:09.559Z,14.73
2022-11-29T18:38:36.418Z,13.75
2022-11-29T18:41:07.490Z,13.57
2022-11-29T18:43:33.876Z,13.15
2022-11-29T18:46:06.015Z,13.50
2022-11-29T18:48:32.321Z,13.32
2022-11-29T18:51:02.664Z,13.18
2022-11-29T18:53:28.986Z,13.43
2022-11-29T18:56:01.591Z,13.45
2022-11-29T18:58:28.048Z,14.10
2022-11-29T19:00:54.417Z,13.90
2022-11-29T19:03:20.743Z,14.25
2022-11-29T19:05:54.297Z,14.18
2022-11-29T19:08:20.663Z,15.10
2022-11-29T19:10:47.041Z,12.95
2022-11-29T19:13:14.145Z,14.07
2022-11-29T19:15:40.532Z,13.07
2022-11-29T19:18:06.892Z,15.00
2022-11-29T19:20:34.334Z,12.90
2022-11-29T19:23:00.924Z,13.57
2022-11-29T19:25:27.294Z,13.52
2022-11-29T19:27:53.680Z,13.60
2022-11-29T19:30:20.034Z,13.18
2022-11-29T19:32:46.407Z,12.45
2022-11-29T19:35:12.711Z,12.93
2022-11-29T19:37:39.049Z,13.18
2022-11-29T19:40:05.771Z,13.70
2022-11-29T19:42:32.141Z,13.23
2022-11-29T19:45:16.362Z,12.80
2022-11-29T19:47:43.718Z,12.57
2022-11-29T19:50:10.113Z,12.77
2022-11-29T19:52:36.556Z,12.50
2022-11-29T19:55:02.929Z,13.40
2022-11-29T19:57:29.223Z,15.93
2022-11-29T19:59:55.607Z,18.67
2022-11-29T20:02:21.959Z,14.93
2022-11-29T20:04:49.684Z,13.75
2022-11-29T20:07:16.129Z,13.18
2022-11-29T20:09:42.593Z,13.40
2022-11-29T20:12:08.976Z,12.82
2022-11-29T20:14:35.382Z,13.52
2022-11-29T20:17:01.797Z,13.23
2022-11-29T20:19:28.161Z,13.20
2022-11-29T20:21:54.723Z,13.18
2022-11-29T20:24:21.125Z,12.82
2022-11-29T20:26:48.162Z,13.15
2022-11-29T20:29:14.672Z,13.82
2022-11-29T20:31:47.645Z,13.05
2022-11-29T20:34:16.461Z,13.45
2022-11-29T20:36:45.673Z,15.00
2022-11-29T20:39:15.086Z,14.80
2022-11-29T20:41:53.626Z,14.40
2022-11-29T20:44:21.406Z,13.10
2022-11-29T20:46:49.158Z,13.18
2022-11-29T20:49:17.255Z,13.50
2022-11-29T20:51:51.724Z,12.88
2022-11-29T20:54:19.113Z,13.85
2022-11-29T20:56:45.477Z,15.00
2022-11-29T20:59:11.940Z,13.60
2022-11-29T21:01:38.326Z,12.98
2022-11-29T21:04:04.694Z,12.60
2022-11-29T21:06:32.086Z,13.90
2022-11-29T21:08:58.422Z,13.35
2022-11-29T21:11:25.365Z,12.45
2022-11-29T21:13:51.923Z,13.55
2022-11-29T21:16:18.544Z,12.50
2022-11-29T21:18:45.150Z,13.07
2022-11-29T21:21:20.716Z,13.15
2022-11-29T21:26:18.635Z,14.57
2022-11-29T21:28:52.948Z,14.20
2022-11-29T21:31:19.497Z,13.02
2022-11-29T21:33:46.263Z,12.70
2022-11-29T21:36:12.894Z,12.48
2022-11-29T21:38:39.437Z,12.88
2022-11-29T21:41:05.891Z,12.52
2022-11-29T21:44:04.303Z,13.32
2022-11-29T21:46:18.762Z,12.55
2022-11-29T21:48:45.132Z,12.82
2022-11-29T21:51:11.990Z,16.27
2022-11-29T21:53:39.014Z,14.95
2022-11-29T21:56:06.692Z,13.32
2022-11-29T21:58:33.771Z,13.45
2022-11-29T22:01:09.169Z,13.32
2022-11-29T22:03:35.556Z,12.57
2022-11-29T22:06:03.132Z,13.18
2022-11-29T22:08:29.443Z,12.85
2022-11-29T22:11:02.881Z,12.68
2022-11-29T22:13:29.479Z,12.43
2022-11-29T22:16:03.081Z,13.00
2022-11-29T22:18:29.577Z,12.85
2022-11-29T22:20:56.202Z,12.35
2022-11-29T22:23:22.771Z,12.85
2022-11-29T22:25:49.075Z,13.07
2022-11-29T22:28:15.645Z,12.45
2022-11-29T22:30:41.938Z,12.20
2022-11-29T22:33:13.081Z,13.00
2022-11-29T22:35:43.426Z,13.05
2022-11-29T22:38:09.774Z,12.90
2022-11-29T22:40:36.080Z,12.88
2022-11-29T22:43:02.483Z,12.75
2022-11-29T22:45:28.846Z,13.73
2022-11-29T22:47:55.150Z,13.15
2022-11-29T22:50:21.475Z,13.10
2022-11-29T22:52:47.807Z,13.82
2022-11-29T22:55:14.214Z,13.50
2022-11-29T22:57:40.560Z,13.75
2022-11-29T23:00:07.267Z,12.68
2022-11-29T23:02:33.756Z,14.38
2022-11-29T23:05:00.182Z,14.05
2022-11-29T23:07:26.608Z,13.23
2022-11-29T23:09:55.021Z,14.00
2022-11-29T23:12:21.414Z,13.13
2022-11-29T23:14:52.966Z,14.25
2022-11-29T23:17:22.331Z,13.68
2022-11-29T23:19:48.792Z,14.52
2022-11-29T23:22:15.125Z,14.52
2022-11-29T23:24:42.703Z,14.32
2022-11-29T23:27:09.093Z,15.00
2022-11-29T23:29:35.445Z,14.88
2022-11-29T23:32:01.856Z,14.60
2022-11-29T23:34:31.025Z,14.80
2022-11-29T23:36:57.395Z,14.20
2022-11-29T23:39:23.938Z,14.93
2022-11-29T23:41:50.229Z,14.13
2022-11-29T23:44:16.621Z,14.15
2022-11-29T23:46:42.940Z,14.35
2022-11-29T23:49:09.321Z,14.55
2022-11-29T23:51:38.589Z,14.10
2022-11-29T23:54:04.970Z,14.43
2022-11-29T23:56:35.257Z,13.93
2022-11-29T23:59:02.161Z,14.20
